Kerteminde, Denmark
Current Conditions -  °F | °C
As of 4:50 PM on Saturday 25 Oct 2014 (Local Time) from EKSB Reporting Station
Rain Showers Rain Showers  
Wind Chill: 14°   Ceiling: 5300
Heat Index: 14°   Visibility: 6mi
Dew Point: 11°   Wind: 5mph
Humidity: 82%   Direction: 260°W
Pressure: 30"   Gusts: NA
Location:  55.45°N, 10.66°E
Report Text: EKSB 251450Z 26004KT 230V290 9999 -SHRA FEW015TCU SCT025BKN053 14/11 Q1016
Loading
Personal Weather Stations






























Interactive Weather Map
Tropical Storm Tracking
New forecast layout! Learn more

10-Day Weather Forecast

Advertisements
Track Severe Weather on mobile